Date,TemperatureHighF,TemperatureAvgF,TemperatureLowF,DewpointHighF,DewpointAvgF,DewpointLowF,HumidityHigh,HumidityAvg,HumidityLow,PressureMaxIn,PressureMinIn,WindSpeedMaxMPH,WindSpeedAvgMPH,GustSpeedMaxMPH,PrecipitationSumIn
2013-2-1,38,38,37,26,26,26,65,64,63,30.31,30.30,7,6,10,0.00
2013-2-2,40,38,32,27,23,10,63,54,32,30.33,30.26,8,5,12,0.00
2013-2-3,46,36,29,25,19,13,79,50,28,30.28,30.15,9,3,14,0.00
2013-2-4,48,37,30,26,19,13,62,48,25,30.27,30.08,11,4,13,0.00
2013-2-5,45,37,29,20,11,-2,65,36,18,30.04,29.89,21,8,32,0.00
2013-2-6,43,32,24,18,2,-8,51,29,13,30.23,30.02,11,3,15,0.00
2013-2-7,32,30,26,21,0,-12,82,30,15,30.07,29.92,24,11,29,0.00
2013-2-8,25,19,15,17,12,8,86,76,58,30.04,29.95,9,2,14,0.00
2013-2-9,28,20,12,15,10,6,86,67,47,30.25,30.08,11,3,14,0.00
2013-2-10,28,23,20,16,13,8,77,66,53,30.23,30.13,20,5,27,0.00
2013-2-11,23,22,20,12,10,9,62,62,62,30.24,30.21,10,10,20,0.00
2013-2-12,26,25,23,15,13,12,62,61,61,30.26,30.24,9,9,19,0.00
2013-2-13,29,28,26,18,16,15,61,61,61,30.29,30.26,8,8,18,0.00
2013-2-14,37,31,29,24,20,18,74,63,60,30.47,30.29,12,7,22,0.00
2013-2-15,47,36,25,23,19,12,82,55,32,30.51,30.31,10,4,16,0.00
2013-2-16,44,37,33,20,12,2,49,36,23,30.32,30.12,13,2,17,0.00
2013-2-17,43,34,27,20,10,4,66,39,20,30.08,29.96,16,5,23,0.00
2013-2-18,40,32,27,19,12,2,69,45,22,30.06,29.74,25,7,31,0.00
2013-2-19,28,22,17,22,13,-100,90,74,38,29.78,29.59,31,-6,34,0.00
2013-2-20,32,23,17,16,13,4,87,67,38,30.10,29.76,15,3,21,0.01
2013-2-21,31,23,16,16,11,5,86,62,37,30.28,29.96,22,4,23,0.01
2013-2-22,40,28,22,22,2,-100,74,46,25,30.32,30.07,28,-97,33,0.01
2013-2-23,33,25,15,23,13,1,80,61,39,30.33,29.82,41,10,41,0.00
2013-2-24,36,24,13,11,6,0,78,50,26,30.46,30.29,23,7,24,0.00
2013-2-25,40,31,24,22,10,-2,78,44,18,30.30,30.13,32,10,35,0.00
2013-2-26,36,27,18,16,4,-6,68,40,16,30.44,30.17,15,4,20,0.00
2013-2-27,42,33,27,15,4,-4,52,30,18,30.44,30.29,20,4,22,0.00
2013-2-28,49,38,28,29,21,8,63,51,37,30.49,30.34,14,4,16,0.00